Time;durP1;ratioP1;P1;durP2;ratioP2;P2;SDS_P1;SDS_P2;PMS_P1;PMS_P2;Temp;Humidity;BMP_temperature;BMP_pressure;BME280_temperature;BME280_humidity;BME280_pressure;Samples;Min_cycle;Max_cycle;Signal;HPM_P1;HPM_P2
2023/12/20 00:01:24;;;;;;;6.03;1.30;;;6.90;99.90;;;;;;5106375;28;20447;-68
2023/12/20 00:03:52;;;;;;;7.17;1.50;;;7.00;99.90;;;;;;5106387;28;20453;-68
2023/12/20 00:06:20;;;;;;;6.83;1.40;;;7.00;99.90;;;;;;5106233;28;20469;-66
2023/12/20 00:08:48;;;;;;;7.20;1.30;;;7.00;99.90;;;;;;5106470;28;20469;-66
2023/12/20 00:11:16;;;;;;;7.10;1.50;;;6.90;99.90;;;;;;5106268;28;21215;-67
2023/12/20 00:13:45;;;;;;;6.60;1.30;;;6.90;99.90;;;;;;5106113;28;20450;-67
2023/12/20 00:16:18;;;;;;;6.97;1.50;;;6.90;99.90;;;;;;5106308;28;20940;-66
2023/12/20 00:18:46;;;;;;;6.40;1.40;;;6.80;99.90;;;;;;5106470;28;20460;-67
2023/12/20 00:21:14;;;;;;;6.10;1.17;;;6.70;99.90;;;;;;5106610;28;20635;-67
2023/12/20 00:23:43;;;;;;;6.40;1.20;;;6.70;99.90;;;;;;5105978;28;20454;-68
2023/12/20 00:26:11;;;;;;;6.93;1.60;;;6.60;99.90;;;;;;5106091;28;20565;-66
2023/12/20 00:28:38;;;;;;;7.07;1.60;;;6.60;99.90;;;;;;5106269;28;20453;-67
2023/12/20 00:31:08;;;;;;;6.10;1.20;;;6.50;99.90;;;;;;5106238;28;20545;-67
2023/12/20 00:33:36;;;;;;;7.10;1.40;;;6.50;99.90;;;;;;5106761;28;20506;-67
2023/12/20 00:36:06;;;;;;;6.57;1.20;;;6.50;99.90;;;;;;5106697;28;20566;-67
2023/12/20 00:38:34;;;;;;;6.70;1.50;;;6.60;99.90;;;;;;5106866;28;20492;-66
2023/12/20 00:41:05;;;;;;;7.23;1.33;;;6.50;99.90;;;;;;5102154;28;20441;-67
2023/12/20 00:43:33;;;;;;;7.50;1.40;;;6.50;99.90;;;;;;5106964;28;20465;-67
2023/12/20 00:46:01;;;;;;;6.60;1.30;;;6.40;99.90;;;;;;5107021;28;20865;-67
2023/12/20 00:48:31;;;;;;;6.60;1.20;;;6.20;99.90;;;;;;5105431;28;20548;-67
2023/12/20 00:50:59;;;;;;;6.50;1.30;;;6.20;99.90;;;;;;5100916;28;20437;-66
2023/12/20 00:53:27;;;;;;;6.70;1.60;;;6.20;99.90;;;;;;5109574;28;20473;-68
2023/12/20 00:55:55;;;;;;;7.47;1.30;;;6.10;99.90;;;;;;5110821;27;20486;-66
2023/12/20 00:58:23;;;;;;;6.67;1.30;;;6.20;99.90;;;;;;5109543;28;20440;-66
2023/12/20 01:00:51;;;;;;;7.53;1.50;;;6.20;99.90;;;;;;5108290;28;20444;-67
2023/12/20 01:03:19;;;;;;;6.87;1.30;;;6.20;99.90;;;;;;5109841;28;20445;-67
2023/12/20 01:05:48;;;;;;;6.90;1.70;;;6.20;99.90;;;;;;5110502;28;20468;-67
2023/12/20 01:08:16;;;;;;;7.33;1.93;;;6.20;99.90;;;;;;5111420;28;20444;-67
2023/12/20 01:10:44;;;;;;;6.43;1.53;;;6.10;99.90;;;;;;5110833;28;20445;-69
2023/12/20 01:13:12;;;;;;;6.67;1.30;;;6.00;99.90;;;;;;5110517;28;21166;-68
2023/12/20 01:15:40;;;;;;;7.10;1.97;;;5.90;99.90;;;;;;5110147;28;20505;-67
2023/12/20 01:18:08;;;;;;;8.57;2.47;;;5.80;99.90;;;;;;5110481;28;20439;-68
2023/12/20 01:20:36;;;;;;;7.70;2.30;;;5.80;99.90;;;;;;5110751;28;20490;-68
2023/12/20 01:23:06;;;;;;;8.90;1.83;;;5.80;99.90;;;;;;5110156;28;20451;-67
2023/12/20 01:25:34;;;;;;;7.50;2.30;;;5.70;99.90;;;;;;5110044;27;20517;-66
2023/12/20 01:28:03;;;;;;;9.70;2.10;;;5.60;99.90;;;;;;5110443;28;20448;-67
2023/12/20 01:30:31;;;;;;;7.37;2.10;;;5.60;99.90;;;;;;5110230;28;20455;-67
2023/12/20 01:33:01;;;;;;;7.10;1.97;;;5.60;99.90;;;;;;5109349;28;21145;-68
2023/12/20 01:35:29;;;;;;;7.77;2.07;;;5.60;99.90;;;;;;5109427;28;20899;-68
2023/12/20 01:37:57;;;;;;;8.80;2.67;;;5.60;99.90;;;;;;5110207;28;20451;-68
2023/12/20 01:40:26;;;;;;;7.80;2.30;;;5.60;99.90;;;;;;5110018;28;20546;-67
2023/12/20 01:43:08;;;;;;;8.20;2.27;;;5.60;99.90;;;;;;5109611;28;20449;-67
2023/12/20 01:45:36;;;;;;;8.07;2.77;;;5.60;99.90;;;;;;5109456;28;20468;-67
2023/12/20 01:48:06;;;;;;;8.00;2.60;;;5.60;99.90;;;;;;5109860;28;20452;-68
2023/12/20 01:50:37;;;;;;;7.07;2.10;;;5.60;99.90;;;;;;5109731;28;20435;-67
2023/12/20 01:53:08;;;;;;;8.47;2.37;;;5.60;99.90;;;;;;5104690;28;20467;-67
2023/12/20 01:55:41;;;;;;;9.17;2.53;;;5.60;99.90;;;;;;5108804;28;20487;-67
2023/12/20 01:58:10;;;;;;;8.07;2.47;;;5.60;99.90;;;;;;5109655;28;21155;-66
2023/12/20 02:00:39;;;;;;;7.63;2.30;;;5.50;99.90;;;;;;5109706;28;20480;-67
2023/12/20 02:03:07;;;;;;;7.77;2.30;;;5.50;99.90;;;;;;5108980;28;20560;-68
2023/12/20 02:05:36;;;;;;;8.30;2.90;;;5.60;99.90;;;;;;5107959;28;20914;-67
2023/12/20 02:08:05;;;;;;;10.40;3.10;;;5.50;99.90;;;;;;5094711;28;20873;-67
2023/12/20 02:10:33;;;;;;;7.30;2.20;;;5.40;99.90;;;;;;5089028;28;20482;-68
2023/12/20 02:13:03;;;;;;;7.50;2.40;;;5.30;99.90;;;;;;5099587;28;20530;-68
2023/12/20 02:15:31;;;;;;;7.87;2.53;;;5.30;99.90;;;;;;5108779;28;20485;-66
2023/12/20 02:17:59;;;;;;;8.13;2.97;;;5.40;99.90;;;;;;5108954;28;20493;-67
2023/12/20 02:20:27;;;;;;;8.37;2.90;;;5.30;99.90;;;;;;5108643;28;20468;-67
2023/12/20 02:22:57;;;;;;;8.20;2.80;;;5.40;99.90;;;;;;5108556;28;21023;-68
2023/12/20 02:25:24;;;;;;;7.93;2.93;;;5.40;99.90;;;;;;5107542;28;20463;-67
2023/12/20 02:27:53;;;;;;;8.70;3.03;;;5.50;99.90;;;;;;5094840;28;20584;-66
2023/12/20 02:30:21;;;;;;;7.83;2.90;;;5.50;99.90;;;;;;5087003;28;20449;-66
2023/12/20 02:32:50;;;;;;;8.50;3.10;;;5.50;99.90;;;;;;5104006;28;20597;-67
2023/12/20 02:35:18;;;;;;;7.53;2.30;;;5.50;99.90;;;;;;5106955;28;20477;-67
2023/12/20 02:37:47;;;;;;;7.70;2.73;;;5.50;99.90;;;;;;5108058;28;20453;-67
2023/12/20 02:40:16;;;;;;;8.07;2.97;;;5.40;99.90;;;;;;5108639;28;20449;-68
2023/12/20 02:42:44;;;;;;;8.40;2.83;;;5.50;99.90;;;;;;5108415;28;21059;-67
2023/12/20 02:45:12;;;;;;;8.43;3.07;;;5.50;99.90;;;;;;5107964;28;20484;-67
2023/12/20 02:47:39;;;;;;;8.07;2.80;;;5.40;99.90;;;;;;5108667;27;20927;-67
2023/12/20 02:50:08;;;;;;;8.73;3.23;;;5.30;99.90;;;;;;5108517;28;20796;-67
2023/12/20 02:52:36;;;;;;;8.30;3.50;;;5.40;99.90;;;;;;5108532;28;20482;-67
2023/12/20 02:55:05;;;;;;;9.37;3.30;;;5.30;99.90;;;;;;5108131;28;20466;-68
2023/12/20 02:57:36;;;;;;;8.07;3.23;;;5.30;99.90;;;;;;5106321;28;20458;-67
2023/12/20 03:00:05;;;;;;;8.73;3.50;;;5.30;99.90;;;;;;5107609;28;20463;-67
2023/12/20 03:02:36;;;;;;;7.83;3.23;;;5.30;99.90;;;;;;5107805;28;20868;-67
2023/12/20 03:05:04;;;;;;;10.80;3.60;;;5.30;99.90;;;;;;5108020;28;20455;-68
2023/12/20 03:07:39;;;;;;;8.77;3.10;;;5.30;99.90;;;;;;5108158;28;21157;-67
2023/12/20 03:10:09;;;;;;;8.83;3.13;;;5.30;99.90;;;;;;5108045;28;20440;-69
2023/12/20 03:12:48;;;;;;;10.03;2.90;;;5.50;99.90;;;;;;5107713;28;20465;-66
2023/12/20 03:15:16;;;;;;;8.53;2.60;;;5.50;99.90;;;;;;5107650;28;20472;-67
2023/12/20 03:17:44;;;;;;;5.90;0.70;;;5.70;99.90;;;;;;5108140;28;20469;-67
2023/12/20 03:20:13;;;;;;;6.10;0.80;;;5.80;99.90;;;;;;5107822;28;20904;-67
2023/12/20 03:22:44;;;;;;;6.23;0.80;;;5.70;99.90;;;;;;5108133;28;21103;-66
2023/12/20 03:25:12;;;;;;;6.00;0.60;;;5.70;99.90;;;;;;5107328;28;20486;-68
2023/12/20 03:27:40;;;;;;;5.93;0.70;;;5.70;99.90;;;;;;5108105;28;20540;-68
2023/12/20 03:30:12;;;;;;;5.90;0.70;;;5.70;99.90;;;;;;5107977;27;20801;-67
2023/12/20 03:32:40;;;;;;;5.97;0.57;;;5.60;99.90;;;;;;5107874;28;20546;-67
2023/12/20 03:35:08;;;;;;;5.67;0.40;;;5.70;99.90;;;;;;5107460;28;20496;-67
2023/12/20 03:37:36;;;;;;;5.90;0.47;;;5.60;99.90;;;;;;5107341;28;20532;-67
2023/12/20 03:40:05;;;;;;;5.70;0.50;;;5.60;99.90;;;;;;5107416;28;20992;-67
2023/12/20 03:42:33;;;;;;;6.50;0.60;;;5.60;99.90;;;;;;5107405;28;20470;-67
2023/12/20 03:45:01;;;;;;;5.70;0.40;;;5.60;99.90;;;;;;5107130;27;21169;-67
2023/12/20 03:47:30;;;;;;;5.80;0.47;;;5.60;99.90;;;;;;5107427;28;20935;-67
2023/12/20 03:49:58;;;;;;;5.60;0.40;;;5.60;99.90;;;;;;5107055;28;20637;-67
2023/12/20 03:52:27;;;;;;;5.80;0.40;;;5.60;99.90;;;;;;5107135;28;21115;-67
2023/12/20 03:54:55;;;;;;;5.83;0.60;;;5.60;99.90;;;;;;5106752;28;20728;-67
2023/12/20 03:57:23;;;;;;;6.33;0.60;;;5.60;99.90;;;;;;5107286;28;20480;-68
2023/12/20 03:59:51;;;;;;;5.60;0.40;;;5.50;99.90;;;;;;5107079;28;20462;-67
2023/12/20 04:02:19;;;;;;;5.60;0.37;;;5.50;99.90;;;;;;5106816;28;20476;-67
2023/12/20 04:04:48;;;;;;;5.63;0.40;;;5.50;99.90;;;;;;5106300;28;20989;-67
2023/12/20 04:07:16;;;;;;;6.10;0.50;;;5.50;99.90;;;;;;5107185;28;20466;-67
2023/12/20 04:09:45;;;;;;;5.80;0.40;;;5.40;99.90;;;;;;5107350;28;20447;-67
2023/12/20 04:12:13;;;;;;;5.93;0.50;;;5.50;99.90;;;;;;5107184;28;20442;-67
2023/12/20 04:14:40;;;;;;;5.67;0.50;;;5.40;99.90;;;;;;5106618;28;20545;-66
2023/12/20 04:17:08;;;;;;;6.00;0.63;;;5.40;99.90;;;;;;5101616;28;20557;-67
2023/12/20 04:19:36;;;;;;;5.80;0.53;;;5.40;99.90;;;;;;5106831;28;20474;-67
2023/12/20 04:22:06;;;;;;;5.87;0.50;;;5.40;99.90;;;;;;5107332;28;20454;-68
2023/12/20 04:24:34;;;;;;;5.70;0.40;;;5.40;99.90;;;;;;5106460;28;20978;-67
2023/12/20 04:27:02;;;;;;;5.70;0.40;;;5.40;99.90;;;;;;5106732;28;20478;-67
2023/12/20 04:29:30;;;;;;;5.87;0.50;;;5.40;99.90;;;;;;5106558;28;20548;-67
2023/12/20 04:31:58;;;;;;;5.97;0.70;;;5.40;99.90;;;;;;5106550;28;20482;-67
2023/12/20 04:34:26;;;;;;;5.60;0.40;;;5.40;99.90;;;;;;5106540;28;20446;-65
2023/12/20 04:36:55;;;;;;;5.67;0.40;;;5.50;99.90;;;;;;5106872;28;20693;-67
2023/12/20 04:39:24;;;;;;;5.73;0.50;;;5.50;99.90;;;;;;5106609;28;20449;-67
2023/12/20 04:41:52;;;;;;;5.97;0.50;;;5.40;99.90;;;;;;5106970;28;20469;-68
2023/12/20 04:44:20;;;;;;;6.90;0.70;;;5.40;99.90;;;;;;5106342;28;20466;-67
2023/12/20 04:46:48;;;;;;;5.80;0.50;;;5.40;99.90;;;;;;5106705;28;20449;-67
2023/12/20 04:49:16;;;;;;;5.90;0.70;;;5.50;99.90;;;;;;5107009;28;20526;-67
2023/12/20 04:51:44;;;;;;;5.80;0.50;;;5.40;99.90;;;;;;5106698;28;20481;-67
2023/12/20 04:54:13;;;;;;;6.50;0.60;;;5.50;99.90;;;;;;5106435;28;21188;-67
2023/12/20 04:56:42;;;;;;;6.10;0.70;;;5.50;99.90;;;;;;5106491;28;20905;-67
2023/12/20 04:59:10;;;;;;;6.33;0.60;;;5.50;99.90;;;;;;5106835;28;20519;-66
2023/12/20 05:01:38;;;;;;;10.13;0.70;;;5.50;99.90;;;;;;5106729;28;20764;-67
2023/12/20 05:04:06;;;;;;;5.70;0.40;;;5.50;99.90;;;;;;5106658;28;20446;-66
2023/12/20 05:06:34;;;;;;;7.20;0.60;;;5.50;99.90;;;;;;5106136;28;21284;-67
2023/12/20 05:09:03;;;;;;;6.00;0.50;;;5.50;99.90;;;;;;5106710;28;20449;-68
2023/12/20 05:11:31;;;;;;;6.20;0.70;;;5.50;99.90;;;;;;5103797;28;20531;-66
2023/12/20 05:14:00;;;;;;;7.80;0.60;;;5.50;99.90;;;;;;5105534;28;20442;-68
2023/12/20 05:16:28;;;;;;;6.00;0.50;;;5.50;99.90;;;;;;5105385;28;20464;-66
2023/12/20 05:18:56;;;;;;;6.70;0.87;;;5.50;99.90;;;;;;5106783;28;20483;-67
2023/12/20 05:21:24;;;;;;;6.30;0.80;;;5.50;99.90;;;;;;5107186;28;20470;-67
2023/12/20 05:23:52;;;;;;;6.70;0.93;;;5.60;99.90;;;;;;5106272;28;20521;-67
2023/12/20 05:26:20;;;;;;;6.80;1.00;;;5.50;99.90;;;;;;5106071;28;20472;-67
2023/12/20 05:28:48;;;;;;;5.93;0.50;;;5.60;99.90;;;;;;5106142;28;20464;-67
2023/12/20 05:31:18;;;;;;;5.63;0.40;;;5.60;99.90;;;;;;5101201;28;21222;-67
2023/12/20 05:33:46;;;;;;;7.50;1.23;;;5.60;99.90;;;;;;5105545;28;21050;-66
2023/12/20 05:36:15;;;;;;;7.83;0.77;;;5.50;99.90;;;;;;5105411;28;20468;-67
2023/12/20 05:38:43;;;;;;;5.90;0.60;;;5.60;99.90;;;;;;5105784;28;20835;-68
2023/12/20 05:41:11;;;;;;;6.30;0.70;;;5.60;99.90;;;;;;5109475;28;20474;-69
2023/12/20 05:43:39;;;;;;;5.80;0.90;;;5.50;99.90;;;;;;5109108;28;20455;-66
2023/12/20 05:46:07;;;;;;;6.00;0.60;;;5.60;99.90;;;;;;5104158;27;20931;-65
2023/12/20 05:48:36;;;;;;;5.90;0.67;;;5.60;99.90;;;;;;5106282;28;20443;-65
2023/12/20 05:51:05;;;;;;;5.73;0.60;;;5.70;99.90;;;;;;5102756;28;21100;-67
2023/12/20 05:53:33;;;;;;;6.30;0.90;;;5.60;99.90;;;;;;5107631;28;20495;-66
2023/12/20 05:56:01;;;;;;;10.20;1.10;;;5.60;99.90;;;;;;5108190;28;20462;-66
2023/12/20 05:58:29;;;;;;;6.27;0.90;;;5.60;99.90;;;;;;5091124;28;20496;-67
2023/12/20 06:00:57;;;;;;;8.43;0.90;;;5.60;99.90;;;;;;5094440;28;20473;-66
2023/12/20 06:03:25;;;;;;;6.50;0.90;;;5.70;99.90;;;;;;5104997;28;20479;-67
2023/12/20 06:05:55;;;;;;;6.50;1.07;;;5.70;99.90;;;;;;5104950;28;20943;-64
2023/12/20 06:08:40;;;;;;;7.80;0.70;;;5.60;99.90;;;;;;5108212;28;20463;-67
2023/12/20 06:11:08;;;;;;;6.27;0.90;;;5.60;99.90;;;;;;5108276;28;20470;-67
2023/12/20 06:13:36;;;;;;;6.53;1.07;;;5.60;99.90;;;;;;5107738;28;20471;-65
2023/12/20 06:16:07;;;;;;;6.00;0.90;;;5.60;99.90;;;;;;5108827;27;20484;-68
2023/12/20 06:18:36;;;;;;;6.70;1.03;;;5.60;99.90;;;;;;5108797;28;20487;-67
2023/12/20 06:21:07;;;;;;;6.90;1.20;;;5.70;99.90;;;;;;5109121;28;20435;-67
2023/12/20 06:23:35;;;;;;;7.03;1.13;;;5.60;99.90;;;;;;5106732;28;20472;-67
2023/12/20 06:26:03;;;;;;;6.47;0.80;;;5.60;99.90;;;;;;5098610;28;20552;-66
2023/12/20 06:28:31;;;;;;;6.53;1.00;;;5.60;99.90;;;;;;5101591;28;20451;-67
2023/12/20 06:31:03;;;;;;;6.10;1.00;;;5.60;99.90;;;;;;5108058;28;20931;-68
2023/12/20 06:33:31;;;;;;;7.00;1.10;;;5.70;99.90;;;;;;5108653;28;20461;-68
2023/12/20 06:36:01;;;;;;;6.80;1.27;;;5.70;99.90;;;;;;5108087;28;20891;-68
2023/12/20 06:38:30;;;;;;;9.07;1.70;;;5.60;99.90;;;;;;5108556;28;21159;-67
2023/12/20 06:40:59;;;;;;;6.90;1.20;;;5.70;99.90;;;;;;5108751;28;20455;-68
2023/12/20 06:43:30;;;;;;;7.00;1.40;;;5.70;99.90;;;;;;5091724;28;20497;-67
2023/12/20 06:46:16;;;;;;;6.67;1.00;;;5.70;99.90;;;;;;5088268;28;20569;-68
2023/12/20 06:48:45;;;;;;;6.90;1.70;;;5.70;99.90;;;;;;5088123;28;20444;-68
2023/12/20 06:51:15;;;;;;;6.47;0.90;;;5.70;99.90;;;;;;5087833;28;20937;-66
2023/12/20 06:53:45;;;;;;;7.40;1.53;;;5.70;99.90;;;;;;5087794;28;20446;-66
2023/12/20 06:56:13;;;;;;;6.77;1.20;;;5.70;99.90;;;;;;5088214;28;20465;-67
2023/12/20 06:58:45;;;;;;;6.80;1.40;;;5.70;99.90;;;;;;5093278;28;20473;-66
2023/12/20 07:01:13;;;;;;;6.80;1.50;;;5.70;99.90;;;;;;5102104;28;20439;-66
2023/12/20 07:03:42;;;;;;;6.97;1.30;;;5.70;99.90;;;;;;5108272;28;20519;-65
2023/12/20 07:06:19;;;;;;;7.70;1.73;;;5.80;99.90;;;;;;5102438;28;20522;-66
2023/12/20 07:08:48;;;;;;;8.20;1.83;;;5.70;99.90;;;;;;5107427;28;20465;-63
2023/12/20 07:11:18;;;;;;;8.10;2.63;;;5.70;99.90;;;;;;5108521;28;20454;-65
2023/12/20 07:13:46;;;;;;;8.73;2.37;;;5.80;99.90;;;;;;5107786;28;20883;-65
2023/12/20 07:16:14;;;;;;;8.30;2.90;;;5.80;99.90;;;;;;5107749;28;21260;-66
2023/12/20 07:18:42;;;;;;;8.23;3.57;;;5.90;99.90;;;;;;5107487;28;20597;-66
2023/12/20 07:21:09;;;;;;;8.50;3.20;;;5.90;99.90;;;;;;5107697;28;20443;-65
2023/12/20 07:23:37;;;;;;;9.63;4.50;;;5.90;99.90;;;;;;5107730;28;20560;-65
2023/12/20 07:26:06;;;;;;;10.13;4.10;;;5.90;99.90;;;;;;5107681;28;20477;-66
2023/12/20 07:28:34;;;;;;;10.10;4.77;;;5.90;99.90;;;;;;5108121;28;20442;-66
2023/12/20 07:31:02;;;;;;;11.13;4.37;;;5.80;99.90;;;;;;5108061;28;20450;-66
2023/12/20 07:33:31;;;;;;;10.70;4.00;;;5.90;99.90;;;;;;5107307;28;20474;-65
2023/12/20 07:36:07;;;;;;;11.10;3.97;;;5.90;99.90;;;;;;5100763;28;20451;-65
2023/12/20 07:38:35;;;;;;;8.87;3.70;;;5.90;99.90;;;;;;5101370;28;20543;-66
2023/12/20 07:41:03;;;;;;;10.73;4.70;;;5.80;99.90;;;;;;5100780;28;20524;-66
2023/12/20 07:43:32;;;;;;;10.70;4.33;;;5.80;99.90;;;;;;5103578;28;20481;-65
2023/12/20 07:46:05;;;;;;;9.20;3.47;;;5.70;99.90;;;;;;5107275;28;20490;-64
2023/12/20 07:48:34;;;;;;;11.83;3.63;;;5.80;99.90;;;;;;5099809;28;20974;-64
2023/12/20 07:51:02;;;;;;;10.07;3.67;;;5.70;99.90;;;;;;5088739;28;20970;-67
2023/12/20 07:53:30;;;;;;;8.97;3.60;;;5.80;99.90;;;;;;5098440;27;20459;-66
2023/12/20 07:55:58;;;;;;;8.43;3.60;;;5.70;99.90;;;;;;5110155;27;20458;-66
2023/12/20 07:58:26;;;;;;;9.20;3.10;;;5.70;99.90;;;;;;5112386;27;20542;-66
2023/12/20 08:01:13;;;;;;;9.23;3.60;;;5.70;99.90;;;;;;5115345;27;20977;-66
2023/12/20 08:03:42;;;;;;;9.10;3.70;;;5.60;99.90;;;;;;5110805;27;20960;-68
2023/12/20 08:06:10;;;;;;;9.40;4.10;;;5.50;99.90;;;;;;5106698;27;20548;-67
2023/12/20 08:08:38;;;;;;;9.53;3.87;;;5.30;99.90;;;;;;5105108;27;20450;-67
2023/12/20 08:11:06;;;;;;;9.07;4.00;;;5.30;99.90;;;;;;5108715;27;20473;-67
2023/12/20 08:13:34;;;;;;;10.67;4.50;;;5.20;99.90;;;;;;5089986;28;21106;-67
2023/12/20 08:16:02;;;;;;;11.47;3.83;;;5.10;99.90;;;;;;5098407;28;20546;-68
2023/12/20 08:18:34;;;;;;;8.93;3.90;;;5.00;99.90;;;;;;5089701;28;20473;-67
2023/12/20 08:21:02;;;;;;;9.57;4.20;;;5.00;99.90;;;;;;5086732;28;20438;-68
2023/12/20 08:23:30;;;;;;;9.03;3.83;;;5.00;99.90;;;;;;5086968;28;20441;-68
2023/12/20 08:26:04;;;;;;;9.77;4.07;;;5.00;99.90;;;;;;5099101;28;20467;-67
2023/12/20 08:28:32;;;;;;;9.67;4.17;;;4.90;99.90;;;;;;5107174;28;21149;-67
2023/12/20 08:31:00;;;;;;;9.50;3.67;;;4.90;99.90;;;;;;5107274;28;20448;-66
2023/12/20 08:33:28;;;;;;;10.53;4.07;;;4.90;99.90;;;;;;5107103;28;20440;-67
2023/12/20 08:35:58;;;;;;;9.23;3.47;;;4.90;99.90;;;;;;5107082;28;21103;-68
2023/12/20 08:38:26;;;;;;;10.70;3.67;;;4.90;99.90;;;;;;5107189;28;20446;-67
2023/12/20 08:40:54;;;;;;;10.20;3.80;;;4.80;99.90;;;;;;5107012;28;20906;-67
2023/12/20 08:43:22;;;;;;;11.00;3.70;;;4.90;99.90;;;;;;5106920;28;21146;-68
2023/12/20 08:45:50;;;;;;;8.77;3.47;;;4.80;99.90;;;;;;5107133;28;20544;-67
2023/12/20 08:48:18;;;;;;;11.40;4.27;;;4.90;99.90;;;;;;5107400;28;20442;-68
2023/12/20 08:50:48;;;;;;;9.97;4.43;;;5.00;99.90;;;;;;5107228;28;20452;-67
2023/12/20 08:53:18;;;;;;;8.87;3.80;;;5.10;99.90;;;;;;5106948;28;21004;-67
2023/12/20 08:55:46;;;;;;;10.80;3.83;;;5.10;99.90;;;;;;5106522;28;20560;-67
2023/12/20 08:58:17;;;;;;;8.53;3.40;;;5.20;99.90;;;;;;5107351;28;20445;-67
2023/12/20 09:00:46;;;;;;;9.50;3.70;;;5.30;99.90;;;;;;5106784;28;20512;-67
2023/12/20 09:03:15;;;;;;;10.43;3.33;;;5.30;99.90;;;;;;5106756;28;20536;-67
2023/12/20 09:05:49;;;;;;;10.77;3.47;;;5.40;99.90;;;;;;5106870;28;20457;-67
2023/12/20 09:08:21;;;;;;;8.47;3.47;;;5.50;99.90;;;;;;5106861;28;20450;-67
2023/12/20 09:10:49;;;;;;;9.13;3.03;;;5.50;99.90;;;;;;5106544;28;20446;-67
2023/12/20 09:13:17;;;;;;;10.03;3.70;;;5.50;99.90;;;;;;5106442;28;20560;-67
2023/12/20 09:15:45;;;;;;;8.60;3.10;;;5.60;99.90;;;;;;5109570;28;20846;-67
2023/12/20 09:18:13;;;;;;;8.83;3.00;;;5.60;99.90;;;;;;5109933;28;20438;-67
2023/12/20 09:20:41;;;;;;;8.30;3.13;;;5.60;99.90;;;;;;5109638;28;20512;-67
2023/12/20 09:23:12;;;;;;;9.43;3.03;;;5.70;99.90;;;;;;5109897;28;20904;-67
2023/12/20 09:25:41;;;;;;;12.07;3.20;;;5.80;99.90;;;;;;5109500;28;20475;-67
2023/12/20 09:28:09;;;;;;;8.30;2.30;;;5.80;99.90;;;;;;5109751;28;21003;-66
2023/12/20 09:30:39;;;;;;;7.10;2.33;;;5.80;99.90;;;;;;5109423;28;20449;-67
2023/12/20 09:33:08;;;;;;;7.50;2.33;;;5.80;99.90;;;;;;5109448;28;20445;-67
2023/12/20 09:35:36;;;;;;;8.10;2.67;;;5.90;99.90;;;;;;5109178;28;21056;-67
2023/12/20 09:38:05;;;;;;;8.10;1.93;;;5.90;99.90;;;;;;5109708;28;20458;-67
2023/12/20 09:40:34;;;;;;;8.40;2.20;;;6.00;99.90;;;;;;5109294;28;20952;-67
2023/12/20 09:43:05;;;;;;;8.57;1.90;;;6.10;99.90;;;;;;5109462;28;20450;-68
2023/12/20 09:45:34;;;;;;;8.30;2.03;;;6.20;99.90;;;;;;5109042;28;21182;-66
2023/12/20 09:48:04;;;;;;;7.47;1.40;;;6.20;99.90;;;;;;5109237;28;20447;-67
2023/12/20 09:50:33;;;;;;;7.77;1.93;;;6.20;99.90;;;;;;5109170;28;20455;-68
2023/12/20 09:53:04;;;;;;;7.50;1.77;;;6.20;99.90;;;;;;5109289;28;20441;-67
2023/12/20 09:55:33;;;;;;;10.07;1.90;;;6.30;99.90;;;;;;5108787;28;20467;-66
2023/12/20 09:58:02;;;;;;;7.87;1.60;;;6.30;99.90;;;;;;5109089;28;20496;-65
2023/12/20 10:00:31;;;;;;;7.10;1.33;;;6.30;99.90;;;;;;5108816;28;20839;-66
2023/12/20 10:03:01;;;;;;;11.33;1.60;;;6.30;99.90;;;;;;5108912;28;20455;-67
2023/12/20 10:05:31;;;;;;;9.70;1.40;;;6.40;99.90;;;;;;5108856;28;20443;-67
2023/12/20 10:08:00;;;;;;;7.93;1.30;;;6.40;99.90;;;;;;5109012;28;20447;-67
2023/12/20 10:10:29;;;;;;;7.73;1.40;;;6.60;99.90;;;;;;5108781;28;20518;-67
2023/12/20 10:13:13;;;;;;;9.90;1.10;;;6.70;99.90;;;;;;5108626;28;21328;-68
2023/12/20 10:15:43;;;;;;;8.07;2.17;;;6.70;99.90;;;;;;5108552;28;20459;-67
2023/12/20 10:18:13;;;;;;;9.13;1.90;;;6.60;99.90;;;;;;5109044;28;20455;-67
2023/12/20 10:20:42;;;;;;;7.43;1.10;;;6.80;99.90;;;;;;5109136;28;21005;-67
2023/12/20 10:23:12;;;;;;;6.97;1.23;;;7.10;99.90;;;;;;5109463;28;20924;-66
2023/12/20 10:25:41;;;;;;;8.70;1.70;;;7.30;99.90;;;;;;5107305;28;21094;-67
2023/12/20 10:28:11;;;;;;;6.70;1.10;;;7.40;99.90;;;;;;5109097;28;20521;-66
2023/12/20 10:30:40;;;;;;;8.40;1.60;;;7.30;99.90;;;;;;5108673;28;21014;-67
2023/12/20 10:33:10;;;;;;;8.17;1.77;;;7.40;99.90;;;;;;5108513;28;20936;-67
2023/12/20 10:35:40;;;;;;;10.47;1.30;;;7.20;99.90;;;;;;5108090;28;20467;-67
2023/12/20 10:38:15;;;;;;;9.10;1.50;;;7.20;99.90;;;;;;5108616;28;20524;-67
2023/12/20 10:40:43;;;;;;;14.00;1.30;;;7.00;99.90;;;;;;5108326;27;21190;-67
2023/12/20 10:43:12;;;;;;;13.40;2.00;;;6.90;99.90;;;;;;5108297;28;20451;-67
2023/12/20 10:45:43;;;;;;;9.07;1.40;;;6.60;99.90;;;;;;5107832;28;20478;-67
2023/12/20 10:48:12;;;;;;;6.90;1.50;;;6.40;99.90;;;;;;5108348;28;20451;-68
2023/12/20 10:50:42;;;;;;;12.37;1.77;;;6.40;99.90;;;;;;5107993;28;20493;-68
2023/12/20 10:53:12;;;;;;;9.10;1.70;;;6.50;99.90;;;;;;5108243;28;20443;-67
2023/12/20 10:55:40;;;;;;;7.43;1.40;;;6.70;99.90;;;;;;5108063;28;20555;-68
2023/12/20 10:58:25;;;;;;;8.70;1.23;;;6.80;99.90;;;;;;5108072;28;20779;-67
2023/12/20 11:01:02;;;;;;;11.03;1.63;;;6.80;99.90;;;;;;5107722;28;20498;-68
2023/12/20 11:03:36;;;;;;;7.07;1.37;;;6.80;99.90;;;;;;5107769;28;20501;-67
2023/12/20 11:06:14;;;;;;;8.97;0.90;;;6.90;99.90;;;;;;5107815;28;20472;-68
2023/12/20 11:08:51;;;;;;;7.83;1.63;;;7.00;99.90;;;;;;5107997;28;20442;-67
2023/12/20 11:11:25;;;;;;;8.57;1.23;;;7.00;99.90;;;;;;5108100;28;20451;-66
2023/12/20 11:13:59;;;;;;;6.80;1.13;;;7.00;99.90;;;;;;5107678;28;20444;-67
2023/12/20 11:16:27;;;;;;;7.53;0.97;;;7.00;99.90;;;;;;5107791;28;20688;-66
2023/12/20 11:19:13;;;;;;;8.03;1.50;;;6.90;99.90;;;;;;5107947;28;20492;-67
2023/12/20 11:21:42;;;;;;;6.90;1.00;;;6.70;99.90;;;;;;5107503;28;20474;-68
2023/12/20 11:24:11;;;;;;;8.23;1.40;;;6.60;99.90;;;;;;5107620;28;20455;-65
2023/12/20 11:26:39;;;;;;;7.03;1.20;;;6.60;99.90;;;;;;5107392;28;20472;-68
2023/12/20 11:29:32;;;;;;;6.93;1.23;;;6.50;99.90;;;;;;5107585;28;20949;-67
2023/12/20 11:32:02;;;;;;;7.70;1.00;;;6.50;99.90;;;;;;5107643;28;20827;-68
2023/12/20 11:34:34;;;;;;;7.60;1.47;;;6.60;99.90;;;;;;5107247;28;20471;-68
2023/12/20 11:37:04;;;;;;;9.60;1.77;;;6.70;99.90;;;;;;5107654;28;20478;-67
2023/12/20 11:39:32;;;;;;;6.97;1.27;;;6.70;99.90;;;;;;5107667;28;20439;-66
2023/12/20 11:42:06;;;;;;;7.03;1.30;;;6.80;99.90;;;;;;5107430;28;20486;-68
2023/12/20 11:44:35;;;;;;;12.03;1.67;;;6.80;99.90;;;;;;5106862;28;21007;-67
2023/12/20 11:47:05;;;;;;;8.70;1.20;;;6.80;99.90;;;;;;5107683;28;20771;-68
2023/12/20 11:49:34;;;;;;;7.70;1.37;;;6.70;99.90;;;;;;5107641;28;20478;-68
2023/12/20 11:52:06;;;;;;;8.27;1.47;;;6.70;99.90;;;;;;5107326;28;21068;-67
2023/12/20 11:54:34;;;;;;;9.50;2.00;;;6.70;99.90;;;;;;5106929;28;20799;-67
2023/12/20 11:57:05;;;;;;;7.90;1.50;;;6.60;99.90;;;;;;5107124;28;20467;-66
2023/12/20 11:59:33;;;;;;;7.23;1.30;;;6.60;99.90;;;;;;5107139;28;20448;-68
2023/12/20 12:02:01;;;;;;;8.17;1.37;;;6.60;99.90;;;;;;5106909;28;20564;-68
2023/12/20 12:04:29;;;;;;;9.77;1.70;;;6.50;99.90;;;;;;5106567;28;20502;-67
2023/12/20 12:06:59;;;;;;;10.23;3.07;;;6.50;99.90;;;;;;5106706;28;20479;-67
2023/12/20 12:09:28;;;;;;;7.20;1.40;;;6.60;99.90;;;;;;5107319;28;20526;-68
2023/12/20 12:11:56;;;;;;;6.73;1.30;;;6.70;99.90;;;;;;5106773;28;20435;-67
2023/12/20 12:14:25;;;;;;;9.43;2.40;;;6.80;99.90;;;;;;5106649;28;20452;-68
2023/12/20 12:16:53;;;;;;;8.23;1.40;;;6.80;99.90;;;;;;5106945;28;20511;-66
2023/12/20 12:19:23;;;;;;;11.00;1.50;;;6.90;99.90;;;;;;5106765;28;20451;-69
2023/12/20 12:21:51;;;;;;;12.43;2.50;;;7.00;99.90;;;;;;5106667;28;20481;-67
2023/12/20 12:24:22;;;;;;;9.00;1.40;;;7.10;99.90;;;;;;5104799;28;20448;-65
2023/12/20 12:26:54;;;;;;;9.80;2.03;;;7.20;99.90;;;;;;5106031;28;20495;-66
2023/12/20 12:29:22;;;;;;;10.33;2.27;;;7.20;99.90;;;;;;5106648;28;20479;-69
2023/12/20 12:31:50;;;;;;;8.70;1.57;;;7.30;99.90;;;;;;5104960;28;20433;-67
2023/12/20 12:34:18;;;;;;;7.00;1.30;;;7.30;99.90;;;;;;5086652;28;20485;-66
2023/12/20 12:36:48;;;;;;;13.20;1.57;;;7.30;99.90;;;;;;5086726;28;21310;-67
2023/12/20 12:39:18;;;;;;;8.03;1.73;;;7.40;99.90;;;;;;5086892;28;20836;-66
2023/12/20 12:41:47;;;;;;;7.70;1.70;;;7.50;99.90;;;;;;5086985;28;21058;-66
2023/12/20 12:44:15;;;;;;;8.77;1.60;;;7.70;99.90;;;;;;5086758;28;20450;-66
2023/12/20 12:46:45;;;;;;;9.03;1.93;;;7.80;99.90;;;;;;5086863;28;20484;-66
2023/12/20 12:49:14;;;;;;;7.47;2.10;;;7.90;99.90;;;;;;5089435;28;20477;-66
2023/12/20 12:51:42;;;;;;;8.77;1.70;;;8.10;99.90;;;;;;5091032;28;20450;-67
2023/12/20 12:54:12;;;;;;;10.47;2.03;;;8.00;99.90;;;;;;5109783;28;20494;-67
2023/12/20 12:56:41;;;;;;;7.50;1.70;;;7.80;99.90;;;;;;5110990;27;20460;-67
2023/12/20 12:59:11;;;;;;;6.93;1.47;;;7.70;99.90;;;;;;5111179;28;20445;-67
2023/12/20 13:01:38;;;;;;;8.47;1.30;;;7.50;99.90;;;;;;5111057;28;20483;-68
2023/12/20 13:04:10;;;;;;;7.53;1.50;;;7.40;99.90;;;;;;5108686;28;20446;-66
2023/12/20 13:06:40;;;;;;;6.60;1.40;;;7.20;99.90;;;;;;5110815;28;20846;-66